createdAt,value
2018-05-25T00:00:07.445Z,17.77
2018-05-25T00:02:37.038Z,16.90
2018-05-25T00:05:05.337Z,17.10
2018-05-25T00:07:36.130Z,15.20
2018-05-25T00:10:04.977Z,15.27
2018-05-25T00:12:34.365Z,17.13
2018-05-25T00:15:01.913Z,15.13
2018-05-25T00:17:34.341Z,16.83
2018-05-25T00:20:03.985Z,15.87
2018-05-25T00:22:31.846Z,15.97
2018-05-25T00:24:59.944Z,15.53
2018-05-25T00:27:28.151Z,14.27
2018-05-25T00:29:56.445Z,16.23
2018-05-25T00:32:25.830Z,15.40
2018-05-25T00:34:53.460Z,16.00
2018-05-25T00:37:20.960Z,14.93
2018-05-25T00:39:48.443Z,15.30
2018-05-25T00:42:15.959Z,16.70
2018-05-25T00:44:43.450Z,15.93
2018-05-25T00:47:11.313Z,15.80
2018-05-25T00:49:38.793Z,15.50
2018-05-25T00:52:06.272Z,15.90
2018-05-25T00:54:33.778Z,15.27
2018-05-25T00:57:01.285Z,15.20
2018-05-25T00:59:28.762Z,16.07
2018-05-25T01:01:56.259Z,16.50
2018-05-25T01:04:24.709Z,16.13
2018-05-25T01:06:52.193Z,13.80
2018-05-25T01:09:19.673Z,13.63
2018-05-25T01:11:47.164Z,12.73
2018-05-25T01:14:15.407Z,15.00
2018-05-25T01:16:42.896Z,14.70
2018-05-25T01:19:11.134Z,13.73
2018-05-25T01:21:38.613Z,13.60
2018-05-25T01:24:06.098Z,11.17
2018-05-25T01:26:34.359Z,14.07
2018-05-25T01:29:02.639Z,11.80
2018-05-25T01:31:30.877Z,12.40
2018-05-25T01:33:58.346Z,11.30
2018-05-25T01:36:25.832Z,15.00
2018-05-25T01:38:54.072Z,17.20
2018-05-25T01:41:23.172Z,15.50
2018-05-25T01:43:50.671Z,16.63
2018-05-25T01:46:18.148Z,19.00
2018-05-25T01:48:45.636Z,20.07
2018-05-25T01:51:13.112Z,20.97
2018-05-25T01:53:40.590Z,21.80
2018-05-25T01:56:08.105Z,21.70
2018-05-25T01:58:35.562Z,21.80
2018-05-25T02:01:03.057Z,21.60
2018-05-25T02:03:31.278Z,19.13
2018-05-25T02:05:58.794Z,19.77
2018-05-25T02:08:27.033Z,22.10
2018-05-25T02:10:54.516Z,19.57
2018-05-25T02:13:22.768Z,20.07
2018-05-25T02:15:50.255Z,20.90
2018-05-25T02:18:18.530Z,18.03
2018-05-25T02:20:46.791Z,18.60
2018-05-25T02:23:14.268Z,18.37
2018-05-25T02:25:42.524Z,17.37
2018-05-25T02:28:10.024Z,16.27
2018-05-25T02:30:37.974Z,16.27
2018-05-25T02:33:05.459Z,18.10
2018-05-25T02:35:32.958Z,18.13
2018-05-25T02:38:00.477Z,17.67
2018-05-25T02:40:28.694Z,15.50
2018-05-25T02:42:56.197Z,16.40
2018-05-25T02:45:23.695Z,14.43
2018-05-25T02:47:51.155Z,16.20
2018-05-25T02:50:19.423Z,17.70
2018-05-25T02:52:46.895Z,17.60
2018-05-25T02:55:14.410Z,17.57
2018-05-25T02:57:41.900Z,17.10
2018-05-25T03:00:09.396Z,17.60
2018-05-25T03:02:37.657Z,20.53
2018-05-25T03:05:05.132Z,19.40
2018-05-25T03:07:32.623Z,22.17
2018-05-25T03:10:00.117Z,20.90
2018-05-25T03:12:27.588Z,20.27
2018-05-25T03:14:55.078Z,18.37
2018-05-25T03:17:22.567Z,17.97
2018-05-25T03:19:50.058Z,17.10
2018-05-25T03:22:17.530Z,15.17
2018-05-25T03:24:45.786Z,17.07
2018-05-25T03:27:13.315Z,17.40
2018-05-25T03:29:40.777Z,16.97
2018-05-25T03:32:08.257Z,16.73
2018-05-25T03:34:35.719Z,16.73
2018-05-25T03:37:03.183Z,17.30
2018-05-25T03:39:30.673Z,19.73
2018-05-25T03:41:58.166Z,19.30
2018-05-25T03:44:25.652Z,19.93
2018-05-25T03:46:53.126Z,22.27
2018-05-25T03:49:21.370Z,22.30
2018-05-25T03:51:48.877Z,20.10
2018-05-25T03:54:16.364Z,20.30
2018-05-25T03:56:43.861Z,18.17
2018-05-25T03:59:23.120Z,20.90
2018-05-25T04:01:58.181Z,27.50
2018-05-25T04:04:33.576Z,22.73
2018-05-25T04:07:01.111Z,24.47
2018-05-25T04:09:28.595Z,21.90
2018-05-25T04:14:28.737Z,25.57
2018-05-25T04:16:56.752Z,25.10
2018-05-25T04:19:24.746Z,24.80
2018-05-25T04:21:54.239Z,23.43
2018-05-25T04:24:25.015Z,23.03
2018-05-25T04:26:52.541Z,21.87
2018-05-25T04:29:22.010Z,19.43
2018-05-25T04:31:50.302Z,19.47
2018-05-25T04:34:18.948Z,21.03
2018-05-25T04:36:47.561Z,20.77
2018-05-25T04:39:18.226Z,22.10
2018-05-25T04:41:45.869Z,20.40
2018-05-25T04:44:15.510Z,20.40
2018-05-25T04:46:43.999Z,19.77
2018-05-25T04:49:12.113Z,18.63
2018-05-25T04:51:40.240Z,19.77
2018-05-25T04:54:07.746Z,20.90
2018-05-25T04:56:35.259Z,23.40
2018-05-25T04:59:02.813Z,22.77
2018-05-25T05:01:32.473Z,23.10
2018-05-25T05:04:01.122Z,22.47
2018-05-25T05:06:33.591Z,24.47
2018-05-25T05:09:04.381Z,23.30
2018-05-25T05:11:31.883Z,23.20
2018-05-25T05:14:02.257Z,24.17
2018-05-25T05:16:32.171Z,24.70
2018-05-25T05:19:01.830Z,21.50
2018-05-25T05:21:32.616Z,21.20
2018-05-25T05:24:01.502Z,17.90
2018-05-25T05:26:29.104Z,17.70
2018-05-25T05:28:57.371Z,17.90
2018-05-25T05:31:26.993Z,17.53
2018-05-25T05:33:55.305Z,18.60
2018-05-25T05:36:22.856Z,18.13
2018-05-25T05:38:50.519Z,17.23
2018-05-25T05:41:20.707Z,16.50
2018-05-25T05:43:56.828Z,17.27
2018-05-25T05:46:25.244Z,15.73
2018-05-25T05:48:53.463Z,17.00
2018-05-25T05:51:21.704Z,16.77
2018-05-25T05:53:50.690Z,16.80
2018-05-25T05:56:18.359Z,16.40
2018-05-25T05:58:47.619Z,17.23
2018-05-25T06:01:16.204Z,16.67
2018-05-25T06:03:44.907Z,16.33
2018-05-25T06:06:13.175Z,15.70
2018-05-25T06:08:44.373Z,14.80
2018-05-25T06:11:11.911Z,16.80
2018-05-25T06:13:43.114Z,14.03
2018-05-25T06:16:13.194Z,15.57
2018-05-25T06:18:42.591Z,15.80
2018-05-25T06:21:12.164Z,15.20
2018-05-25T06:23:40.556Z,15.70
2018-05-25T06:26:08.579Z,15.30
2018-05-25T06:28:36.111Z,16.40
2018-05-25T06:31:03.622Z,16.33
2018-05-25T06:33:31.114Z,16.57
2018-05-25T06:35:58.644Z,15.90
2018-05-25T06:38:26.144Z,15.70
2018-05-25T06:40:53.647Z,16.67
2018-05-25T06:43:21.150Z,15.90
2018-05-25T06:45:48.650Z,18.37
2018-05-25T06:48:16.169Z,16.77
2018-05-25T06:50:44.514Z,19.00
2018-05-25T06:53:11.963Z,18.87
2018-05-25T06:55:39.462Z,20.57
2018-05-25T06:58:07.737Z,19.10
2018-05-25T07:00:35.981Z,20.70
2018-05-25T07:03:03.472Z,19.70
2018-05-25T07:05:31.010Z,21.30
2018-05-25T07:07:58.514Z,20.10
2018-05-25T07:10:27.254Z,20.80
2018-05-25T07:12:54.729Z,21.40
2018-05-25T07:15:23.005Z,21.87
2018-05-25T07:17:51.258Z,22.20
2018-05-25T07:20:18.788Z,20.83
2018-05-25T07:22:46.278Z,20.70
2018-05-25T07:25:13.789Z,20.03
2018-05-25T07:27:41.853Z,22.07
2018-05-25T07:30:09.337Z,19.90
2018-05-25T07:32:36.847Z,18.77
2018-05-25T07:35:05.208Z,19.70
2018-05-25T07:37:33.471Z,18.00
2018-05-25T07:40:00.965Z,20.17
2018-05-25T07:42:29.499Z,21.03
2018-05-25T07:44:56.992Z,20.97
2018-05-25T07:47:25.262Z,20.17
2018-05-25T07:49:52.744Z,21.80
2018-05-25T07:52:20.305Z,18.57
2018-05-25T07:54:47.781Z,20.40
2018-05-25T07:57:15.297Z,22.10
2018-05-25T07:59:43.569Z,19.17
2018-05-25T08:02:11.942Z,18.73
2018-05-25T08:04:39.445Z,19.10
2018-05-25T08:07:06.936Z,16.90
2018-05-25T08:09:34.445Z,19.53
2018-05-25T08:12:02.025Z,20.43
2018-05-25T08:14:29.483Z,18.00
2018-05-25T08:16:56.996Z,18.83
2018-05-25T08:19:25.291Z,18.67
2018-05-25T08:21:55.013Z,19.87
2018-05-25T08:24:22.491Z,19.27
2018-05-25T08:26:49.967Z,18.00
2018-05-25T08:29:18.123Z,21.10
2018-05-25T08:31:45.633Z,20.50
2018-05-25T08:34:14.387Z,19.20
2018-05-25T08:36:41.886Z,19.77
2018-05-25T08:39:10.215Z,19.70
2018-05-25T08:41:37.782Z,18.80
2018-05-25T08:44:05.299Z,18.30
2018-05-25T08:46:32.814Z,18.37
2018-05-25T08:49:00.374Z,17.60
2018-05-25T08:51:29.023Z,17.33
2018-05-25T08:53:56.519Z,17.67
2018-05-25T08:56:24.304Z,17.33
2018-05-25T08:58:52.572Z,17.10
2018-05-25T09:01:20.096Z,17.20
2018-05-25T09:03:47.537Z,18.47
2018-05-25T09:06:15.047Z,16.47
2018-05-25T09:08:42.542Z,16.90
2018-05-25T09:11:10.058Z,16.40
2018-05-25T09:13:38.240Z,17.17
2018-05-25T09:16:06.511Z,15.93
2018-05-25T09:18:34.487Z,15.00
2018-05-25T09:21:02.758Z,15.30
2018-05-25T09:23:30.306Z,14.50
2018-05-25T09:25:58.536Z,14.90
2018-05-25T09:28:26.899Z,15.40
2018-05-25T09:30:54.458Z,13.80
2018-05-25T09:33:22.033Z,13.23
2018-05-25T09:35:50.138Z,13.70
2018-05-25T09:38:17.612Z,13.30
2018-05-25T09:40:45.875Z,13.50
2018-05-25T09:43:13.377Z,14.73
2018-05-25T09:45:40.855Z,12.20
2018-05-25T09:48:08.924Z,13.20
2018-05-25T09:50:36.447Z,12.43
2018-05-25T09:53:04.727Z,11.93
2018-05-25T09:55:32.213Z,11.67
2018-05-25T09:57:59.723Z,10.30
2018-05-25T10:00:27.216Z,9.03
2018-05-25T10:02:54.690Z,10.00
2018-05-25T10:05:22.347Z,10.20
2018-05-25T10:07:49.815Z,8.90
2018-05-25T10:10:19.859Z,10.60
2018-05-25T10:12:47.497Z,10.93
2018-05-25T10:15:14.985Z,10.30
2018-05-25T10:17:42.489Z,8.17
2018-05-25T10:20:11.520Z,8.20
2018-05-25T10:22:39.908Z,8.23
2018-05-25T10:25:07.418Z,7.10
2018-05-25T10:27:34.905Z,8.77
2018-05-25T10:30:02.417Z,8.20
2018-05-25T10:32:30.720Z,7.77
2018-05-25T10:34:58.233Z,7.80
2018-05-25T10:37:25.737Z,7.10
2018-05-25T10:39:53.626Z,6.40
2018-05-25T10:42:21.145Z,5.70
2018-05-25T10:44:49.417Z,5.40
2018-05-25T10:47:17.677Z,5.93
2018-05-25T10:49:45.190Z,5.83
2018-05-25T10:52:13.394Z,6.50
2018-05-25T10:54:40.887Z,7.00
2018-05-25T10:57:09.159Z,7.80
2018-05-25T10:59:37.408Z,6.97
2018-05-25T11:02:04.926Z,7.70
2018-05-25T11:04:33.181Z,6.20
2018-05-25T11:07:00.653Z,6.03
2018-05-25T11:09:28.162Z,5.80
2018-05-25T11:11:55.678Z,6.30
2018-05-25T11:14:23.254Z,6.77
2018-05-25T11:16:50.725Z,7.03
2018-05-25T11:19:18.241Z,6.70
2018-05-25T11:21:45.744Z,7.37
2018-05-25T11:24:13.285Z,7.00
2018-05-25T11:26:41.621Z,7.00
2018-05-25T11:29:09.140Z,6.57
2018-05-25T11:31:36.637Z,6.50
2018-05-25T11:34:04.175Z,6.73
2018-05-25T11:36:31.701Z,6.10
2018-05-25T11:38:59.235Z,5.93
2018-05-25T11:41:26.754Z,6.80
2018-05-25T11:43:55.041Z,6.90
2018-05-25T11:46:22.528Z,6.27
2018-05-25T11:48:50.006Z,5.67
2018-05-25T11:51:17.495Z,6.20
2018-05-25T11:53:45.738Z,7.20
2018-05-25T11:56:13.235Z,6.03
2018-05-25T11:58:41.544Z,7.63
2018-05-25T12:01:09.892Z,7.07
2018-05-25T12:03:38.157Z,6.27
2018-05-25T12:06:05.634Z,8.03
2018-05-25T12:08:33.149Z,7.27
2018-05-25T12:11:00.653Z,7.27
2018-05-25T12:13:28.882Z,7.33
2018-05-25T12:15:57.268Z,7.67
2018-05-25T12:18:24.752Z,7.27
2018-05-25T12:20:52.235Z,7.37
2018-05-25T12:23:19.736Z,7.47
2018-05-25T12:25:47.253Z,6.50
2018-05-25T12:28:14.749Z,7.30
2018-05-25T12:30:42.303Z,6.80
2018-05-25T12:33:10.381Z,7.13
2018-05-25T12:35:37.892Z,6.93
2018-05-25T12:38:05.365Z,10.70
2018-05-25T12:40:32.859Z,10.63
2018-05-25T12:43:00.371Z,10.33
2018-05-25T12:45:28.633Z,10.47
2018-05-25T12:47:56.129Z,9.67
2018-05-25T12:50:24.173Z,9.40
2018-05-25T12:52:51.688Z,9.80
2018-05-25T12:55:19.982Z,9.63
2018-05-25T12:57:48.560Z,9.23
2018-05-25T13:00:16.633Z,9.17
2018-05-25T13:02:44.137Z,11.27
2018-05-25T13:05:11.629Z,11.40
2018-05-25T13:07:39.171Z,11.60
2018-05-25T13:10:06.670Z,11.50
2018-05-25T13:12:34.299Z,9.97
2018-05-25T13:15:01.822Z,10.00
2018-05-25T13:17:29.324Z,9.53
2018-05-25T13:19:56.814Z,11.00
2018-05-25T13:22:25.341Z,10.83
2018-05-25T13:24:52.898Z,9.33
2018-05-25T13:27:20.463Z,10.97
2018-05-25T13:29:47.944Z,10.33
2018-05-25T13:32:16.478Z,10.20
2018-05-25T13:34:43.957Z,9.00
2018-05-25T13:37:12.640Z,9.60
2018-05-25T13:39:40.237Z,9.50
2018-05-25T13:42:08.648Z,8.90
2018-05-25T13:44:36.894Z,8.60
2018-05-25T13:47:04.401Z,8.07
2018-05-25T13:49:31.935Z,8.37
2018-05-25T13:51:59.425Z,8.50
2018-05-25T13:54:27.917Z,7.57
2018-05-25T13:56:55.413Z,7.00
2018-05-25T13:59:23.983Z,7.33
2018-05-25T14:01:51.492Z,8.33
2018-05-25T14:04:18.986Z,7.97
2018-05-25T14:06:46.502Z,8.10
2018-05-25T14:09:14.599Z,7.80
2018-05-25T14:11:42.161Z,6.90
2018-05-25T14:14:10.105Z,6.93
2018-05-25T14:16:39.083Z,6.90
2018-05-25T14:19:06.599Z,6.40
2018-05-25T14:21:34.108Z,7.07
2018-05-25T14:24:01.814Z,6.07
2018-05-25T14:26:29.319Z,6.20
2018-05-25T14:28:56.800Z,6.50
2018-05-25T14:31:28.107Z,5.07
2018-05-25T14:33:56.733Z,5.80
2018-05-25T14:36:25.031Z,5.47
2018-05-25T14:38:52.543Z,5.77
2018-05-25T14:41:20.160Z,6.00
2018-05-25T14:43:49.648Z,4.90
2018-05-25T14:46:17.213Z,6.40
2018-05-25T14:48:44.757Z,6.43
2018-05-25T14:51:12.391Z,8.77
2018-05-25T14:53:40.688Z,6.83
2018-05-25T14:56:09.970Z,5.80
2018-05-25T14:58:38.329Z,6.37
2018-05-25T15:01:06.657Z,6.60
2018-05-25T15:03:34.915Z,6.80
2018-05-25T15:06:06.098Z,8.10
2018-05-25T15:08:42.352Z,8.10
2018-05-25T15:11:12.925Z,7.10
2018-05-25T15:13:46.855Z,6.93
2018-05-25T15:16:18.740Z,7.00
2018-05-25T15:18:51.581Z,7.53
2018-05-25T15:21:24.597Z,6.73
2018-05-25T15:23:52.823Z,5.80
2018-05-25T15:26:27.302Z,7.80
2018-05-25T15:28:56.069Z,10.43
2018-05-25T15:31:25.986Z,8.63
2018-05-25T15:33:53.744Z,9.70
2018-05-25T15:36:32.201Z,11.70
2018-05-25T15:39:03.260Z,7.60
2018-05-25T15:41:31.719Z,21.77
2018-05-25T15:43:59.321Z,13.63
2018-05-25T15:46:28.805Z,6.37
2018-05-25T15:48:56.271Z,6.30
2018-05-25T15:51:24.176Z,7.80
2018-05-25T15:53:52.969Z,8.07
2018-05-25T15:56:40.796Z,8.03
2018-05-25T15:59:13.991Z,7.50
2018-05-25T16:01:42.687Z,7.50
2018-05-25T16:04:11.260Z,14.17
2018-05-25T16:06:43.749Z,9.80
2018-05-25T16:09:12.439Z,8.37
2018-05-25T16:11:43.033Z,8.13
2018-05-25T16:14:11.396Z,6.50
2018-05-25T16:19:25.101Z,6.97
2018-05-25T16:21:56.064Z,6.30
2018-05-25T16:24:24.779Z,8.40
2018-05-25T16:26:52.415Z,7.20
2018-05-25T16:29:21.232Z,7.27
2018-05-25T16:31:49.534Z,7.20
2018-05-25T16:34:17.041Z,6.97
2018-05-25T16:36:45.068Z,6.53
2018-05-25T16:39:12.568Z,6.83
2018-05-25T16:41:41.212Z,6.87
2018-05-25T16:44:08.731Z,6.50
2018-05-25T16:46:37.024Z,7.03
2018-05-25T16:49:04.546Z,7.20
2018-05-25T16:51:32.111Z,7.30
2018-05-25T16:53:59.644Z,7.77
2018-05-25T16:56:27.156Z,7.13
2018-05-25T16:58:55.248Z,7.07
2018-05-25T17:01:22.739Z,7.57
2018-05-25T17:03:50.225Z,6.57
2018-05-25T17:06:18.547Z,8.57
2018-05-25T17:08:46.064Z,7.60
2018-05-25T17:11:14.402Z,8.07
2018-05-25T17:13:41.905Z,7.60
2018-05-25T17:16:09.501Z,7.30
2018-05-25T17:18:37.004Z,8.07
2018-05-25T17:21:04.590Z,7.57
2018-05-25T17:23:32.097Z,7.50
2018-05-25T17:25:59.616Z,6.90
2018-05-25T17:28:27.135Z,7.63
2018-05-25T17:30:54.634Z,7.97
2018-05-25T17:33:22.176Z,7.33
2018-05-25T17:35:49.685Z,7.23
2018-05-25T17:38:17.556Z,7.70
2018-05-25T17:40:46.938Z,7.27
2018-05-25T17:43:14.459Z,7.13
2018-05-25T17:45:41.927Z,7.00
2018-05-25T17:48:09.417Z,7.37
2018-05-25T17:50:38.070Z,7.10
2018-05-25T17:53:05.565Z,7.60
2018-05-25T17:55:33.098Z,7.30
2018-05-25T17:58:00.841Z,8.00
2018-05-25T18:00:28.321Z,8.03
2018-05-25T18:02:56.596Z,7.80
2018-05-25T18:05:24.074Z,7.93
2018-05-25T18:07:51.660Z,9.13
2018-05-25T18:10:19.157Z,8.37
2018-05-25T18:12:47.581Z,7.60
2018-05-25T18:15:15.142Z,8.00
2018-05-25T18:17:42.700Z,7.87
2018-05-25T18:20:10.308Z,7.30
2018-05-25T18:22:37.847Z,7.70
2018-05-25T18:25:05.343Z,7.13
2018-05-25T18:27:32.860Z,6.77
2018-05-25T18:30:01.198Z,8.60
2018-05-25T18:32:28.755Z,7.13
2018-05-25T18:34:56.990Z,7.73
2018-05-25T18:37:24.490Z,6.80
2018-05-25T18:39:52.071Z,7.20
2018-05-25T18:42:19.665Z,7.07
2018-05-25T18:44:47.195Z,7.03
2018-05-25T18:47:14.687Z,7.73
2018-05-25T18:49:42.898Z,7.00
2018-05-25T18:52:10.406Z,8.90
2018-05-25T18:54:39.066Z,7.30
2018-05-25T18:57:07.440Z,8.23
2018-05-25T18:59:34.980Z,8.43
2018-05-25T19:02:02.470Z,8.30
2018-05-25T19:04:30.859Z,10.20
2018-05-25T19:06:58.369Z,9.30
2018-05-25T19:09:26.839Z,8.63
2018-05-25T19:11:54.335Z,9.30
2018-05-25T19:14:21.876Z,9.40
2018-05-25T19:16:49.396Z,9.50
2018-05-25T19:19:17.715Z,8.33
2018-05-25T19:21:45.215Z,10.07
2018-05-25T19:24:12.708Z,10.20
2018-05-25T19:26:40.215Z,10.73
2018-05-25T19:29:07.724Z,9.47
2018-05-25T19:31:36.519Z,10.57
2018-05-25T19:34:04.123Z,9.80
2018-05-25T19:36:31.659Z,9.87
2018-05-25T19:38:59.187Z,9.30
2018-05-25T19:41:27.466Z,9.93
2018-05-25T19:43:54.972Z,9.97
2018-05-25T19:46:23.267Z,9.70
2018-05-25T19:48:50.744Z,11.67
2018-05-25T19:51:18.298Z,16.10
2018-05-25T19:53:45.801Z,12.47
2018-05-25T19:56:14.372Z,11.93
2018-05-25T19:58:41.862Z,11.17
2018-05-25T20:01:09.421Z,10.60
2018-05-25T20:03:37.652Z,10.13
2018-05-25T20:06:05.934Z,10.73
2018-05-25T20:08:33.481Z,10.20
2018-05-25T20:11:01.771Z,11.47
2018-05-25T20:13:29.326Z,10.30
2018-05-25T20:15:56.843Z,10.73
2018-05-25T20:18:24.357Z,12.00
2018-05-25T20:20:51.882Z,11.30
2018-05-25T20:23:20.213Z,12.00
2018-05-25T20:25:47.740Z,12.20
2018-05-25T20:28:15.282Z,12.40
2018-05-25T20:30:43.556Z,12.67
2018-05-25T20:33:11.859Z,11.70
2018-05-25T20:35:39.481Z,11.53
2018-05-25T20:38:06.973Z,11.30
2018-05-25T20:40:35.241Z,10.20
2018-05-25T20:43:02.885Z,10.70
2018-05-25T20:45:31.156Z,10.33
2018-05-25T20:47:59.056Z,10.33
2018-05-25T20:50:26.706Z,10.17
2018-05-25T20:52:54.278Z,10.57
2018-05-25T20:55:22.400Z,11.27
2018-05-25T20:57:50.674Z,11.17
2018-05-25T21:00:18.197Z,11.30
2018-05-25T21:02:45.681Z,11.67
2018-05-25T21:05:13.222Z,11.70
2018-05-25T21:07:40.768Z,12.07
2018-05-25T21:10:08.256Z,12.20
2018-05-25T21:12:35.779Z,12.47
2018-05-25T21:15:03.669Z,12.00
2018-05-25T21:17:31.190Z,12.00
2018-05-25T21:20:00.515Z,12.40
2018-05-25T21:22:28.438Z,12.07
2018-05-25T21:24:56.712Z,14.03
2018-05-25T21:27:24.218Z,12.93
2018-05-25T21:29:51.717Z,11.63
2018-05-25T21:32:19.185Z,12.43
2018-05-25T21:34:46.679Z,13.30
2018-05-25T21:37:14.225Z,14.03
2018-05-25T21:39:41.707Z,13.00
2018-05-25T21:42:09.902Z,12.60
2018-05-25T21:44:37.379Z,14.37
2018-05-25T21:47:04.888Z,13.60
2018-05-25T21:49:33.172Z,12.23
2018-05-25T21:52:00.675Z,13.53
2018-05-25T21:54:28.175Z,13.70
2018-05-25T21:56:55.663Z,12.63
2018-05-25T21:59:23.175Z,12.93
2018-05-25T22:01:51.507Z,13.10
2018-05-25T22:04:18.972Z,12.47
2018-05-25T22:06:47.717Z,12.37
2018-05-25T22:09:15.192Z,12.73
2018-05-25T22:11:43.561Z,13.20
2018-05-25T22:14:11.071Z,13.07
2018-05-25T22:16:38.633Z,13.93
2018-05-25T22:19:06.959Z,13.70
2018-05-25T22:21:34.482Z,12.73
2018-05-25T22:24:01.982Z,12.60
2018-05-25T22:26:29.478Z,12.97
2018-05-25T22:28:56.988Z,12.30
2018-05-25T22:31:24.507Z,12.83
2018-05-25T22:33:52.019Z,13.67
2018-05-25T22:36:19.513Z,14.67
2018-05-25T22:38:47.694Z,14.47
2018-05-25T22:41:15.200Z,13.77
2018-05-25T22:43:54.460Z,13.57
2018-05-25T22:46:34.533Z,13.40
2018-05-25T22:49:13.967Z,11.47
2018-05-25T22:51:53.158Z,11.60
2018-05-25T22:54:43.093Z,12.73
2018-05-25T22:57:11.470Z,13.07
2018-05-25T22:59:38.957Z,13.30
2018-05-25T23:02:06.556Z,13.23
2018-05-25T23:04:34.079Z,12.00
2018-05-25T23:07:02.759Z,13.40
2018-05-25T23:09:30.266Z,12.90
2018-05-25T23:11:57.999Z,12.97
2018-05-25T23:14:25.489Z,13.37
2018-05-25T23:16:53.014Z,13.00
2018-05-25T23:19:21.276Z,13.60
2018-05-25T23:21:50.085Z,12.80
2018-05-25T23:24:17.684Z,13.77
2018-05-25T23:26:47.328Z,13.97
2018-05-25T23:29:14.866Z,15.47
2018-05-25T23:31:42.397Z,13.73
2018-05-25T23:34:10.941Z,14.10
2018-05-25T23:36:38.997Z,12.13
2018-05-25T23:39:07.306Z,13.40
2018-05-25T23:41:36.740Z,13.07
2018-05-25T23:44:04.310Z,14.13
2018-05-25T23:46:37.045Z,14.97
2018-05-25T23:49:04.674Z,12.53
2018-05-25T23:51:36.294Z,12.30
2018-05-25T23:54:09.560Z,14.83
2018-05-25T23:56:37.179Z,13.23
2018-05-25T23:59:07.037Z,14.13
